Rewey, WI (53580)

08:18 AM CST die 19o December, anno 2014 (GMT -0600)
Iowa County | Change Station
CLOSE
Current Station
Airport
Location: Mineral Point,
Elevation: 1168 ft
Nearby Weather Stations

Elev 1168 ft 42.89 °N, 90.23 °W | Updated 23 minutes ago

Aequaliter Nubila
Aequaliter Nubila
27 °F
Feels Like 27 °F
N
0
Ventus Variabilis Ventus from Aquilo

Hodie
High -- | Low -- °F
--% Chance of Precip.
Yesterday
High -- | Low -- °F
Precip. -- in
7:28 AM 4:29 PM
Waning Crescent, 8% visible
Pressio 30.27 in
Visibilitas 10.0 milia passuum
Clouds Aequaliter Nubila 1200 ft
Frigus in quo Ros apparet 21 °F
Umor 80%
Rainfall 0.00 in
Snow Depth Not available.
UV 0 out of 12
Pollen .10 out of 12
Air Quality Not available.
Flu Activity Not available.
METAR KMRJ 191355Z AUTO 00000KT 10SM OVC012 M03/M06 A3027 RMK AO2

More Conditions Fewer Conditions

Pressio 30.27 in
Visibilitas 10.0 milia passuum
Clouds Aequaliter Nubila 1200 ft
Frigus in quo Ros apparet 21 °F
Umor 80%
Rainfall 0.00 in
Snow Depth Not available.
UV 0 out of 12
Pollen .10 out of 12
Air Quality Not available.
Flu Activity Not available.
METAR KMRJ 191355Z AUTO 00000KT 10SM OVC012 M03/M06 A3027 RMK AO2

More Conditions Fewer Conditions

10-Day Weather Forecast

Almanac

Astronomy

Dec. 19, 2014 Rise Set
Actual Time
Civil Twilight
Nautical Twilight
Astronomical Twilight
Moon
Length Of Visible Light
Length of Day
Tomorrow will be .
, % of the Moon is Illuminated

Today's Extremes

State Highs State Lows

Community

WunderPhotos

Upload Photos

1,778,987 photos uploaded!

WunderBlogs® & News

Nearby

Air Quality

  Air Quality AQ Index Pollutant
Not available.

Snow Depth

Station Depth Elevation

Earthquake Activity

City Distance Mag. Time & Date
Minimum magnitude displayed is 2.5.

Coastal Water Temperatures

Locus Calor

Nearby Weather Stations